AirNav   Duncan Aviation - Near you to keep you flying
 
 996 users online  

AZ87 Jeppesen Ranch Heliport
Chandler, Arizona, USA

GOING TO CHANDLER?


FAA INFORMATION EFFECTIVE 08 SEPTEMBER 2022

Location

FAA Identifier: AZ87
Lat/Long: 33-13-39.1840N 111-51-12.4980W
33-13.653067N 111-51.208300W
33.2275511,-111.8534717
(estimated)
Elevation: 1203 ft. / 367 m (estimated)
Variation: 13E (1985)
From city: 5 miles NE of CHANDLER, AZ
Time zone: UTC -7 (year round; does not observe DST)
Zip code: 85248

Heliport Operations

Heliport use: Private use. Permission required prior to landing
Control tower: no
ARTCC: ALBUQUERQUE CENTER
FSS: PRESCOTT FLIGHT SERVICE STATION
Attendance: CONTINUOUS
Wind indicator: no
Segmented circle: no

Heliport Communications

WX AWOS-3PT at CHD (3 nm NE): PHONE 480-814-9952
WX AWOS-3 at IWA (11 nm NE): 133.5 (480-988-9428)
WX AWOS-3 at A39 (15 nm S): 126.900 (520-568-7704)
WX ASOS at PHX (15 nm NW): PHONE 602-231-8557
WX ASOS at FFZ (15 nm NE): PHONE 480-641-4111
WX AWOS-3PT at CGZ (17 nm S): 132.175 (520-836-3392)

Nearby radio navigation aids

VOR radial/distance  VOR name  Freq  Var
IWAr233/11.1WILLIE VORTAC113.3013E
PXRr143/13.6PHOENIX VORTAC115.6012E
TFDr356/20.7STANFIELD VORTAC114.8012E

Heliport Services

Runway Information

Helipad H1

Dimensions: 80 x 60 ft. / 24 x 18 m
Surface: turf
Traffic pattern: leftleft

Heliport Ownership and Management from official FAA records

Ownership: Privately-owned
Owner: RICHARD F. JEPPESEN
24211 S. ALMA SCHOOL ROAD
CHANDLER, AZ 85224
Phone 602-895-1892
Manager: RICHARD F. JEPPESEN
24211 S. ALMA SCHOOL ROAD
CHANDLER, AZ 85224
Phone 602-895-1892

Additional Remarks

A52-H1 25' TREES 60' FROM PAD.
FOR CD CTC PHOENIX APCH AT 602-306-2565.

Instrument Procedures

There are no published instrument procedures at AZ87.

Some nearby airports with instrument procedures:

KCHD - Chandler Municipal Airport (3 nm NE)
P19 - Stellar Airpark (5 nm NW)
KIWA - Phoenix-Mesa Gateway Airport (11 nm NE)
KPHX - Phoenix Sky Harbor International Airport (15 nm NW)
KFFZ - Falcon Field Airport (15 nm NE)
KCGZ - Casa Grande Municipal Airport (17 nm S)
 
Loc | Ops | Rwys | IFR | FBO | Links
Com | Nav | Svcs | Stats | Notes
Area around AZ87 (Jeppesen Ranch Heliport)
 
Road maps at: MapQuest Bing Google
 
Aerial photo
No photo
 
Sectional chart

 
Airport distance calculator
Flying to Jeppesen Ranch Heliport? Find the distance to fly.

From to AZ87

Sunrise and sunset
Times for 02-Oct-2022
 Local
(UTC-7)
 Zulu
(UTC)
Morning civil twilight05:5912:59
Sunrise06:2313:23
Sunset18:1001:10
Evening civil twilight18:3501:35

Current date and time
Zulu (UTC)  02-Oct-2022 18:49:25
Local (UTC-7)  02-Oct-2022 11:49:25
 
METAR
KCHD 
3nm NE 
021747Z VRB06KT 10SM CLR 31/15 A2994
KIWA 
11nm NE 
021747Z VRB05KT 10SM CLR 31/15 A2996
KPHX 
16nm NW 
021751Z 13005KT 10SM FEW100 FEW200 32/14 A2991 RMK AO2 SLP109 T03220144 10322 20256 50003 $
KFFZ 
16nm NE 
021754Z VRB03KT 10SM CLR 31/14 A2994 RMK AO2 SLP112 T03060144 10311 20244 50001
KCGZ 
17nm S 
021756Z AUTO 36003KT 10SM CLR 30/14 A2996 RMK AO2 SLP128 6//// T03000144 10300 20217 58001 $
TAF
KIWA 
11nm NE 
021720Z 0218/0318 18008KT P6SM FEW100 FEW150 FM022200 22007KT P6SM FEW100 FEW150 FM030000 26006KT P6SM FEW100 FEW150 FM030300 07005KT P6SM FEW100 SCT150 SCT250 FM030500 13008KT P6SM FEW100 FEW150
KPHX 
16nm NW 
021720Z 0218/0324 16007KT P6SM FEW100 FEW150 FM022200 21007KT P6SM FEW100 FEW150 FM030000 25006KT P6SM FEW100 FEW150 FM030400 10005KT P6SM FEW100 SCT150 SCT250 FM031700 14008KT P6SM FEW100 FEW150 FM032100 28008KT P6SM FEW100 FEW150
NOTAMs
Click for the latest NOTAMs
NOTAMs are issued by the DoD/FAA and will open in a separate window not controlled by AirNav.

 

 
 

Would you like to see your business listed on this page?

 If your business provides an interesting product or service to pilots, flight crews, aircraft, or users of the Jeppesen Ranch Heliport, you should consider listing it here.  To start the listing process, click on the button below
 
Add a business
 

Other Pages about Jeppesen Ranch Heliport

Update a link
 
Copyright © AirNav, LLC. All rights reserved. Privacy Policy  Contact